createdAt,value
2023-02-03T00:00:50.011Z,102658.72
2023-02-03T00:03:16.607Z,102665.72
2023-02-03T00:05:43.808Z,102687.47
2023-02-03T00:08:10.607Z,102679.66
2023-02-03T00:10:38.907Z,102687.47
2023-02-03T00:13:06.247Z,102676.31
2023-02-03T00:15:32.966Z,102688.31
2023-02-03T00:17:59.471Z,102690.97
2023-02-03T00:20:26.400Z,102690.13
2023-02-03T00:22:53.241Z,102690.25
2023-02-03T00:25:21.426Z,102680.75
2023-02-03T00:27:47.944Z,102689.41
2023-02-03T00:30:14.432Z,102699.03
2023-02-03T00:32:40.985Z,102694.72
2023-02-03T00:35:07.748Z,102691.09
2023-02-03T00:37:34.278Z,102705.91
2023-02-03T00:40:00.781Z,102720.94
2023-02-03T00:42:27.281Z,102703.97
2023-02-03T00:44:53.771Z,102694.44
2023-02-03T00:47:20.210Z,102698.66
2023-02-03T00:49:47.179Z,102684.81
2023-02-03T00:52:13.643Z,102695.03
2023-02-03T00:54:40.119Z,102708.28
2023-02-03T00:57:06.601Z,102693.94
2023-02-03T00:59:33.116Z,102679.41
2023-02-03T01:01:59.710Z,102683.47
2023-02-03T01:04:26.487Z,102679.00
2023-02-03T01:06:56.278Z,102673.00
2023-02-03T01:09:23.655Z,102680.94
2023-02-03T01:11:50.187Z,102685.97
2023-02-03T01:14:16.742Z,102679.00
2023-02-03T01:16:43.291Z,102675.78
2023-02-03T01:19:09.850Z,102687.91
2023-02-03T01:21:36.413Z,102686.13
2023-02-03T01:24:03.166Z,102676.50
2023-02-03T01:26:29.641Z,102690.56
2023-02-03T01:29:00.232Z,102674.66
2023-02-03T01:31:28.913Z,102680.81
2023-02-03T01:33:56.577Z,102644.00
2023-02-03T01:36:25.452Z,102622.81
2023-02-03T01:38:52.181Z,102633.41
2023-02-03T01:41:22.603Z,102633.41
2023-02-03T01:43:52.135Z,102630.16
2023-02-03T01:46:30.984Z,102632.53
2023-02-03T01:49:07.332Z,102628.94
2023-02-03T01:51:35.476Z,102635.06
2023-02-03T01:54:02.942Z,102647.63
2023-02-03T01:56:35.046Z,102654.44
2023-02-03T01:59:01.670Z,102638.44
2023-02-03T02:01:30.730Z,102622.81
2023-02-03T02:03:59.804Z,102610.25
2023-02-03T02:06:26.452Z,102611.94
2023-02-03T02:08:54.038Z,102605.41
2023-02-03T02:11:23.386Z,102596.50
2023-02-03T02:13:52.672Z,102610.72
2023-02-03T02:16:40.651Z,102611.41
2023-02-03T02:19:19.504Z,102609.75
2023-02-03T02:22:13.869Z,102621.16
2023-02-03T02:24:52.419Z,102628.72
2023-02-03T02:27:29.099Z,102623.44
2023-02-03T02:30:04.432Z,102637.66
2023-02-03T02:32:47.179Z,102635.13
2023-02-03T02:35:44.647Z,102635.00
2023-02-03T02:38:20.355Z,102622.72
2023-02-03T02:40:55.055Z,102628.13
2023-02-03T02:43:28.505Z,102615.88
2023-02-03T02:46:03.077Z,102623.00
2023-02-03T02:48:38.615Z,102622.03
2023-02-03T02:51:07.865Z,102613.09
2023-02-03T02:53:38.579Z,102613.91
2023-02-03T02:56:08.674Z,102596.50
2023-02-03T02:58:39.238Z,102602.50
2023-02-03T03:01:09.667Z,102599.16
2023-02-03T03:03:40.455Z,102604.19
2023-02-03T03:06:13.318Z,102583.53
2023-02-03T03:08:52.011Z,102583.38
2023-02-03T03:11:18.747Z,102592.19
2023-02-03T03:13:50.161Z,102595.56
2023-02-03T03:16:21.685Z,102583.13
2023-02-03T03:19:05.308Z,102592.91
2023-02-03T03:21:37.594Z,102593.59
2023-02-03T03:24:09.907Z,102591.66
2023-02-03T03:26:43.461Z,102579.50
2023-02-03T03:29:21.468Z,102583.81
2023-02-03T03:31:48.794Z,102583.13
2023-02-03T03:34:17.138Z,102586.47
2023-02-03T03:37:00.965Z,102584.81
2023-02-03T03:39:45.329Z,102598.91
2023-02-03T03:42:11.745Z,102606.59
2023-02-03T03:44:43.993Z,102604.75
2023-02-03T03:47:16.551Z,102602.53
2023-02-03T03:49:46.898Z,102599.72
2023-02-03T03:52:20.151Z,102618.88
2023-02-03T03:54:48.663Z,102625.16
2023-02-03T03:57:23.057Z,102613.69
2023-02-03T03:59:50.661Z,102643.56
2023-02-03T04:02:19.857Z,102633.09
2023-02-03T04:04:48.068Z,102624.28
2023-02-03T04:07:15.061Z,102617.03
2023-02-03T04:09:42.966Z,102627.53
2023-02-03T04:12:29.717Z,102616.50
2023-02-03T04:14:56.148Z,102616.50
2023-02-03T04:17:22.841Z,102615.69
2023-02-03T04:19:49.347Z,102609.28
2023-02-03T04:22:15.803Z,102632.03
2023-02-03T04:24:42.265Z,102623.22
2023-02-03T04:27:08.769Z,102623.81
2023-02-03T04:29:35.254Z,102625.34
2023-02-03T04:32:01.772Z,102614.63
2023-02-03T04:34:28.231Z,102614.63
2023-02-03T04:36:54.661Z,102599.81
2023-02-03T04:39:21.489Z,102615.88
2023-02-03T04:41:47.985Z,102604.19
2023-02-03T04:44:14.436Z,102618.41
2023-02-03T04:46:40.864Z,102617.44
2023-02-03T04:49:07.400Z,102618.41
2023-02-03T04:51:33.832Z,102621.91
2023-02-03T04:54:00.320Z,102602.94
2023-02-03T04:56:27.037Z,102603.78
2023-02-03T04:58:53.477Z,102616.31
2023-02-03T05:01:19.984Z,102618.72
2023-02-03T05:03:46.444Z,102599.44
2023-02-03T05:06:12.938Z,102595.13
2023-02-03T05:08:39.375Z,102607.41
2023-02-03T05:11:06.665Z,102607.41
2023-02-03T05:13:33.368Z,102599.31
2023-02-03T05:15:59.844Z,102616.38
2023-02-03T05:18:26.295Z,102600.47
2023-02-03T05:20:52.813Z,102621.41
2023-02-03T05:23:19.303Z,102626.56
2023-02-03T05:25:45.960Z,102617.50
2023-02-03T05:28:12.486Z,102616.38
2023-02-03T05:30:39.098Z,102601.44
2023-02-03T05:33:05.548Z,102610.81
2023-02-03T05:35:32.023Z,102604.25
2023-02-03T05:37:59.478Z,102605.22
2023-02-03T05:40:44.952Z,102602.69
2023-02-03T05:43:11.445Z,102615.13
2023-02-03T05:45:38.024Z,102631.03
2023-02-03T05:48:04.749Z,102615.13
2023-02-03T05:50:36.250Z,102624.75
2023-02-03T05:53:06.614Z,102627.41
2023-02-03T05:55:34.014Z,102639.13
2023-02-03T05:58:01.123Z,102605.50
2023-02-03T06:00:28.807Z,102606.03
2023-02-03T06:02:57.650Z,102606.63
2023-02-03T06:05:25.183Z,102612.91
2023-02-03T06:07:51.803Z,102599.06
2023-02-03T06:10:18.773Z,102617.63
2023-02-03T06:12:45.495Z,102618.59
2023-02-03T06:15:12.169Z,102606.31
2023-02-03T06:17:38.709Z,102595.97
2023-02-03T06:20:07.039Z,102611.06
2023-02-03T06:22:34.167Z,102611.34
2023-02-03T06:25:00.640Z,102623.78
2023-02-03T06:27:27.418Z,102607.44
2023-02-03T06:29:53.907Z,102607.44
2023-02-03T06:32:20.421Z,102618.59
2023-02-03T06:34:46.882Z,102623.47
2023-02-03T06:37:13.623Z,102610.22
2023-02-03T06:39:40.129Z,102618.44
2023-02-03T06:42:07.177Z,102613.00
2023-02-03T06:44:33.742Z,102608.53
2023-02-03T06:47:02.044Z,102610.47
2023-02-03T06:49:29.471Z,102614.81
2023-02-03T06:51:56.286Z,102629.75
2023-02-03T06:54:22.730Z,102636.19
2023-02-03T06:56:49.276Z,102633.66
2023-02-03T06:59:15.806Z,102643.28
2023-02-03T07:01:42.346Z,102647.59
2023-02-03T07:04:10.165Z,102660.03
2023-02-03T07:06:36.850Z,102651.50
2023-02-03T07:09:05.405Z,102657.41
2023-02-03T07:11:32.208Z,102668.81
2023-02-03T07:13:59.085Z,102665.47
2023-02-03T07:16:27.488Z,102665.47
2023-02-03T07:18:54.262Z,102662.00
2023-02-03T07:21:20.726Z,102674.53
2023-02-03T07:23:48.738Z,102665.72
2023-02-03T07:26:16.240Z,102677.31
2023-02-03T07:28:42.749Z,102669.34
2023-02-03T07:31:10.418Z,102667.41
2023-02-03T07:33:38.513Z,102679.97
2023-02-03T07:36:05.764Z,102679.84
2023-02-03T07:38:32.329Z,102680.94
2023-02-03T07:40:58.892Z,102676.50
2023-02-03T07:43:25.445Z,102682.34
2023-02-03T07:45:51.871Z,102667.41
2023-02-03T07:48:18.540Z,102671.88
2023-02-03T07:50:45.781Z,102681.53
2023-02-03T07:53:12.255Z,102669.94
2023-02-03T07:55:40.013Z,102681.66
2023-02-03T07:58:07.138Z,102695.59
2023-02-03T08:00:34.075Z,102695.16
2023-02-03T08:03:00.621Z,102689.34
2023-02-03T08:05:27.165Z,102694.53
2023-02-03T08:07:53.690Z,102718.50
2023-02-03T08:10:20.321Z,102687.81
2023-02-03T08:12:47.170Z,102710.28
2023-02-03T08:15:14.711Z,102712.09
2023-02-03T08:17:42.090Z,102711.25
2023-02-03T08:20:09.925Z,102723.97
2023-02-03T08:22:36.500Z,102712.81
2023-02-03T08:25:03.945Z,102707.09
2023-02-03T08:27:31.948Z,102719.28
2023-02-03T08:29:58.886Z,102717.31
2023-02-03T08:32:26.574Z,102722.75
2023-02-03T08:34:53.373Z,102735.03
2023-02-03T08:37:24.357Z,102736.72
2023-02-03T08:39:51.767Z,102733.09
2023-02-03T08:42:18.695Z,102728.63
2023-02-03T08:44:45.664Z,102738.41
2023-02-03T08:47:12.867Z,102726.81
2023-02-03T08:49:39.711Z,102737.03
2023-02-03T08:52:10.984Z,102739.44
2023-02-03T08:54:37.879Z,102739.44
2023-02-03T08:57:04.873Z,102750.75
2023-02-03T08:59:31.788Z,102737.34
2023-02-03T09:01:59.892Z,102740.69
2023-02-03T09:04:26.509Z,102753.44
2023-02-03T09:06:56.611Z,102751.63
2023-02-03T09:09:23.629Z,102751.38
2023-02-03T09:11:50.336Z,102745.63
2023-02-03T09:14:16.813Z,102750.81
2023-02-03T09:16:43.489Z,102758.63
2023-02-03T09:19:10.002Z,102754.88
2023-02-03T09:21:39.304Z,102746.06
2023-02-03T09:24:10.306Z,102751.38
2023-02-03T09:26:36.769Z,102758.69
2023-02-03T09:29:03.337Z,102759.50
2023-02-03T09:31:29.855Z,102763.84
2023-02-03T09:33:56.416Z,102748.06
2023-02-03T09:36:22.960Z,102752.53
2023-02-03T09:38:49.466Z,102769.75
2023-02-03T09:41:34.105Z,102769.59
2023-02-03T09:44:38.016Z,102767.63
2023-02-03T09:47:14.208Z,102766.50
2023-02-03T09:49:53.892Z,102766.94
2023-02-03T09:52:29.176Z,102780.91
2023-02-03T09:54:58.739Z,102791.28
2023-02-03T09:57:27.801Z,102765.84
2023-02-03T09:59:58.290Z,102774.63
2023-02-03T10:02:55.082Z,102785.00
2023-02-03T10:05:57.920Z,102783.06
2023-02-03T10:08:43.206Z,102798.72
2023-02-03T10:11:45.674Z,102792.44
2023-02-03T10:14:37.019Z,102793.84
2023-02-03T10:17:16.925Z,102802.78
2023-02-03T10:20:09.716Z,102798.34
2023-02-03T10:23:01.699Z,102792.88
2023-02-03T10:25:57.273Z,102801.53
2023-02-03T10:28:27.797Z,102800.00
2023-02-03T10:31:04.629Z,102808.53
2023-02-03T10:33:34.441Z,102809.38
2023-02-03T10:36:12.987Z,102815.25
2023-02-03T10:38:46.492Z,102811.63
2023-02-03T10:41:13.713Z,102819.88
2023-02-03T10:43:52.913Z,102824.75
2023-02-03T10:46:27.604Z,102812.44
2023-02-03T10:48:56.476Z,102833.31
2023-02-03T10:51:24.469Z,102821.00
2023-02-03T10:53:53.469Z,102834.72
2023-02-03T10:56:27.247Z,102821.56
2023-02-03T10:58:56.616Z,102822.25
2023-02-03T11:01:44.674Z,102836.84
2023-02-03T11:04:30.133Z,102822.00
2023-02-03T11:07:08.216Z,102832.75
2023-02-03T11:09:42.932Z,102826.03
2023-02-03T11:12:18.585Z,102843.50
2023-02-03T11:14:47.811Z,102856.66
2023-02-03T11:17:24.135Z,102875.13
2023-02-03T11:19:53.301Z,102857.31
2023-02-03T11:22:31.825Z,102841.66
2023-02-03T11:24:59.562Z,102846.84
2023-02-03T11:27:30.364Z,102834.56
2023-02-03T11:30:24.724Z,102842.78
2023-02-03T11:32:52.892Z,102842.22
2023-02-03T11:35:24.507Z,102833.28
2023-02-03T11:37:54.044Z,102838.72
2023-02-03T11:40:20.474Z,102835.94
2023-02-03T11:42:49.994Z,102837.34
2023-02-03T11:45:26.991Z,102842.66
2023-02-03T11:48:15.421Z,102841.81
2023-02-03T11:50:51.011Z,102842.78
2023-02-03T11:54:03.792Z,102826.72
2023-02-03T11:56:48.802Z,102822.41
2023-02-03T11:59:33.536Z,102814.44
2023-02-03T12:02:37.850Z,102826.72
2023-02-03T12:05:26.072Z,102830.91
2023-02-03T12:08:04.411Z,102822.81
2023-02-03T12:10:46.163Z,102845.88
2023-02-03T12:13:31.188Z,102839.72
2023-02-03T12:16:29.461Z,102839.31
2023-02-03T12:19:26.646Z,102844.72
2023-02-03T12:22:14.350Z,102852.69
2023-02-03T12:25:02.670Z,102853.25
2023-02-03T12:27:47.919Z,102864.06
2023-02-03T12:30:37.487Z,102867.97
2023-02-03T12:33:17.348Z,102873.53
2023-02-03T12:35:53.553Z,102879.38
2023-02-03T12:38:45.345Z,102882.41
2023-02-03T12:41:19.132Z,102880.16
2023-02-03T12:43:53.232Z,102884.41
2023-02-03T12:46:26.186Z,102896.00
2023-02-03T12:49:16.367Z,102899.16
2023-02-03T12:51:50.680Z,102912.56
2023-02-03T12:54:33.405Z,102908.50
2023-02-03T12:57:17.463Z,102911.78
2023-02-03T12:59:51.291Z,102918.75
2023-02-03T13:02:26.261Z,102920.59
2023-02-03T13:05:00.029Z,102916.81
2023-02-03T13:07:44.751Z,102919.63
2023-02-03T13:10:37.074Z,102913.22
2023-02-03T13:13:07.399Z,102923.56
2023-02-03T13:15:45.888Z,102912.56
2023-02-03T13:18:29.591Z,102921.81
2023-02-03T13:20:56.450Z,102926.88
2023-02-03T13:23:23.944Z,102935.53
2023-02-03T13:26:05.653Z,102926.50
2023-02-03T13:28:41.127Z,102927.31
2023-02-03T13:31:26.108Z,102925.38
2023-02-03T13:34:13.953Z,102935.28
2023-02-03T13:36:58.619Z,102936.59
2023-02-03T13:39:43.977Z,102924.16
2023-02-03T13:42:20.774Z,102942.72
2023-02-03T13:44:52.870Z,102921.75
2023-02-03T13:47:28.040Z,102926.53
2023-02-03T13:50:03.623Z,102920.53
2023-02-03T13:52:36.538Z,102921.38
2023-02-03T13:55:04.122Z,102926.81
2023-02-03T13:57:37.555Z,102929.47
2023-02-03T14:00:26.692Z,102925.25
2023-02-03T14:02:54.624Z,102926.09
2023-02-03T14:05:44.205Z,102915.47
2023-02-03T14:08:26.186Z,102918.13
2023-02-03T14:11:47.274Z,102931.84
2023-02-03T14:14:13.687Z,102929.91
2023-02-03T14:16:45.034Z,102939.09
2023-02-03T14:19:32.499Z,102943.31
2023-02-03T14:22:05.325Z,102949.72
2023-02-03T14:24:33.339Z,102951.66
2023-02-03T14:27:02.958Z,102957.22
2023-02-03T14:29:32.433Z,102954.47
2023-02-03T14:31:58.976Z,102969.66
2023-02-03T14:34:35.018Z,102966.41
2023-02-03T14:37:10.268Z,102974.97
2023-02-03T14:39:50.305Z,102989.31
2023-02-03T14:42:38.529Z,102984.53
2023-02-03T14:45:27.556Z,102988.16
2023-02-03T14:48:09.244Z,102977.06
2023-02-03T14:50:57.720Z,102981.41
2023-02-03T14:53:46.007Z,102983.81
2023-02-03T14:56:27.605Z,102987.44
2023-02-03T14:59:02.322Z,102981.16
2023-02-03T15:01:37.862Z,102993.84
2023-02-03T15:04:24.463Z,102985.03
2023-02-03T15:06:53.132Z,102984.31
2023-02-03T15:09:48.730Z,102995.78
2023-02-03T15:12:26.193Z,102983.88
2023-02-03T15:14:53.738Z,102986.66
2023-02-03T15:17:26.487Z,102983.41
2023-02-03T15:19:53.663Z,102987.03
2023-02-03T15:22:28.606Z,102976.81
2023-02-03T15:25:00.370Z,102972.56
2023-02-03T15:27:32.421Z,102977.88
2023-02-03T15:29:59.242Z,102988.38
2023-02-03T15:32:29.212Z,102983.31
2023-02-03T15:34:58.558Z,102980.06
2023-02-03T15:37:43.777Z,102993.34
2023-02-03T15:40:18.855Z,102984.53
2023-02-03T15:42:58.739Z,102999.84
2023-02-03T15:46:03.201Z,102990.47
2023-02-03T15:49:03.862Z,103005.66
2023-02-03T15:51:37.236Z,103007.84
2023-02-03T15:54:19.091Z,103008.22
2023-02-03T15:56:59.646Z,103003.41
2023-02-03T15:59:35.826Z,103008.97
2023-02-03T16:02:19.384Z,103014.13
2023-02-03T16:04:46.134Z,103032.22
2023-02-03T16:07:22.929Z,103036.06
2023-02-03T16:09:53.832Z,103038.25
2023-02-03T16:12:28.738Z,103026.94
2023-02-03T16:14:56.825Z,103029.59
2023-02-03T16:17:33.810Z,103033.31
2023-02-03T16:20:12.627Z,103039.72
2023-02-03T16:22:41.670Z,103048.03
2023-02-03T16:25:24.424Z,103050.81
2023-02-03T16:28:34.647Z,103051.78
2023-02-03T16:31:39.927Z,103059.22
2023-02-03T16:34:36.967Z,103073.44
2023-02-03T16:37:39.556Z,103078.97
2023-02-03T16:40:24.950Z,103091.28
2023-02-03T16:43:09.626Z,103081.16
2023-02-03T16:45:54.440Z,103087.28
2023-02-03T16:48:39.777Z,103092.56
2023-02-03T16:51:12.431Z,103097.03
2023-02-03T16:53:40.257Z,103113.91
2023-02-03T16:56:07.051Z,103102.56
2023-02-03T16:58:33.689Z,103101.84
2023-02-03T17:01:02.954Z,103095.81
2023-02-03T17:03:30.133Z,103105.56
2023-02-03T17:05:57.526Z,103110.13
2023-02-03T17:08:25.769Z,103114.59
2023-02-03T17:10:52.781Z,103123.38
2023-02-03T17:13:21.377Z,103125.19
2023-02-03T17:15:52.643Z,103120.13
2023-02-03T17:18:19.865Z,103134.19
2023-02-03T17:20:47.021Z,103137.81
2023-02-03T17:23:16.252Z,103145.16
2023-02-03T17:25:48.810Z,103145.88
2023-02-03T17:28:15.385Z,103151.41
2023-02-03T17:30:42.116Z,103144.44
2023-02-03T17:33:12.290Z,103154.91
2023-02-03T17:35:43.964Z,103148.38
2023-02-03T17:38:12.670Z,103153.34
2023-02-03T17:54:24.514Z,103171.44
2023-02-03T17:56:51.078Z,103186.50
2023-02-03T17:59:17.599Z,103188.41
2023-02-03T18:01:44.138Z,103179.72
2023-02-03T18:04:10.617Z,103189.69
2023-02-03T18:06:37.283Z,103193.19
2023-02-03T18:09:06.852Z,103202.94
2023-02-03T18:11:35.076Z,103202.84
2023-02-03T18:14:02.516Z,103203.88
2023-02-03T18:16:33.145Z,103203.25
2023-02-03T18:19:02.231Z,103207.69
2023-02-03T18:21:32.180Z,103208.78
2023-02-03T18:24:01.753Z,103214.16
2023-02-03T18:26:36.344Z,103212.59
2023-02-03T18:29:04.574Z,103226.56
2023-02-03T18:31:31.584Z,103234.38
2023-02-03T18:34:03.496Z,103235.97
2023-02-03T18:36:30.052Z,103243.91
2023-02-03T18:38:56.597Z,103248.16
2023-02-03T18:41:25.734Z,103246.47
2023-02-03T18:43:52.356Z,103252.63
2023-02-03T18:46:21.670Z,103243.91
2023-02-03T18:48:48.542Z,103250.69
2023-02-03T18:51:17.395Z,103260.22
2023-02-03T18:53:45.146Z,103251.66
2023-02-03T18:56:24.522Z,103256.00
2023-02-03T18:58:51.343Z,103256.00
2023-02-03T19:01:27.026Z,103256.00
2023-02-03T19:03:58.791Z,103261.06
2023-02-03T19:06:27.072Z,103263.81
2023-02-03T19:08:53.751Z,103266.59
2023-02-03T19:11:20.400Z,103264.69
2023-02-03T19:13:46.999Z,103284.66
2023-02-03T19:16:16.744Z,103271.66
2023-02-03T19:18:44.453Z,103276.72
2023-02-03T19:21:12.520Z,103270.56
2023-02-03T19:23:40.262Z,103280.94
2023-02-03T19:26:07.420Z,103279.25
2023-02-03T19:28:35.342Z,103269.75
2023-02-03T19:31:08.344Z,103274.19
2023-02-03T19:33:35.941Z,103271.44
2023-02-03T19:36:03.162Z,103275.03
2023-02-03T19:38:29.678Z,103272.63
2023-02-03T19:40:56.741Z,103282.25
2023-02-03T19:43:24.670Z,103283.44
2023-02-03T19:45:51.769Z,103296.31
2023-02-03T19:48:19.149Z,103298.13
2023-02-03T19:50:49.223Z,103305.22
2023-02-03T19:53:17.686Z,103308.72
2023-02-03T19:55:45.751Z,103311.47
2023-02-03T19:58:13.701Z,103299.09
2023-02-03T20:00:41.253Z,103315.59
2023-02-03T20:03:07.814Z,103315.72
2023-02-03T20:05:36.040Z,103320.38
2023-02-03T20:08:02.806Z,103328.22
2023-02-03T20:10:30.276Z,103340.50
2023-02-03T20:12:56.895Z,103341.44
2023-02-03T20:15:23.437Z,103340.50
2023-02-03T20:17:50.379Z,103342.41
2023-02-03T20:20:19.691Z,103336.25
2023-02-03T20:22:47.090Z,103345.03
2023-02-03T20:25:14.007Z,103340.59
2023-02-03T20:27:40.532Z,103343.13
2023-02-03T20:30:07.609Z,103342.41
2023-02-03T20:32:34.256Z,103337.84
2023-02-03T20:35:00.751Z,103335.19
2023-02-03T20:37:27.288Z,103339.84
2023-02-03T20:39:53.807Z,103332.03
2023-02-03T20:42:20.395Z,103340.72
2023-02-03T20:44:46.988Z,103337.38
2023-02-03T20:47:17.762Z,103339.00
2023-02-03T20:49:44.694Z,103339.97
2023-02-03T20:52:16.534Z,103343.53
2023-02-03T20:54:43.740Z,103348.84
2023-02-03T20:57:16.211Z,103351.69
2023-02-03T20:59:44.621Z,103352.25
2023-02-03T21:02:30.697Z,103352.44
2023-02-03T21:04:57.653Z,103352.34
2023-02-03T21:07:27.401Z,103351.69
2023-02-03T21:09:54.801Z,103350.63
2023-02-03T21:12:21.706Z,103360.59
2023-02-03T21:14:49.060Z,103355.84
2023-02-03T21:17:26.992Z,103356.78
2023-02-03T21:19:54.869Z,103376.06
2023-02-03T21:22:24.357Z,103369.91
2023-02-03T21:24:56.973Z,103366.44
2023-02-03T21:27:26.596Z,103370.00
2023-02-03T21:29:56.479Z,103368.22
2023-02-03T21:32:38.327Z,103375.13
2023-02-03T21:35:24.236Z,103377.78
2023-02-03T21:37:56.032Z,103372.47
2023-02-03T21:40:24.205Z,103375.00
2023-02-03T21:42:51.874Z,103372.47
2023-02-03T21:45:19.790Z,103379.25
2023-02-03T21:47:49.339Z,103383.81
2023-02-03T21:50:32.808Z,103387.19
2023-02-03T21:53:05.084Z,103388.25
2023-02-03T21:55:31.539Z,103393.44
2023-02-03T21:57:58.027Z,103381.16
2023-02-03T22:00:43.193Z,103391.63
2023-02-03T22:03:19.590Z,103393.44
2023-02-03T22:05:47.377Z,103387.50
2023-02-03T22:08:21.472Z,103404.03
2023-02-03T22:10:48.739Z,103410.38
2023-02-03T22:13:16.303Z,103407.94
2023-02-03T22:15:43.512Z,103411.44
2023-02-03T22:18:10.500Z,103413.41
2023-02-03T22:20:37.060Z,103418.09
2023-02-03T22:23:03.503Z,103426.03
2023-02-03T22:25:30.039Z,103433.84
2023-02-03T22:27:56.552Z,103426.47
2023-02-03T22:30:23.099Z,103430.78
2023-02-03T22:32:49.854Z,103436.91
2023-02-03T22:35:16.458Z,103431.97
2023-02-03T22:37:42.924Z,103449.53
2023-02-03T22:40:10.191Z,103442.53
2023-02-03T22:42:36.729Z,103443.72
2023-02-03T22:45:03.360Z,103443.72
2023-02-03T22:47:29.813Z,103451.66
2023-02-03T22:49:56.314Z,103452.59
2023-02-03T22:52:22.822Z,103468.56
2023-02-03T22:54:49.393Z,103464.03
2023-02-03T22:57:15.895Z,103467.63
2023-02-03T22:59:42.416Z,103474.81
2023-02-03T23:02:08.897Z,103469.72
2023-02-03T23:04:35.415Z,103471.44
2023-02-03T23:07:02.116Z,103464.56
2023-02-03T23:09:28.894Z,103467.81
2023-02-03T23:11:55.373Z,103466.13
2023-02-03T23:14:21.895Z,103460.00
2023-02-03T23:16:48.352Z,103456.63
2023-02-03T23:19:15.344Z,103467.94
2023-02-03T23:21:41.808Z,103471.53
2023-02-03T23:24:08.471Z,103468.91
2023-02-03T23:26:35.000Z,103470.59
2023-02-03T23:29:01.824Z,103475.16
2023-02-03T23:31:28.450Z,103469.66
2023-02-03T23:34:13.624Z,103471.53
2023-02-03T23:36:40.087Z,103469.09
2023-02-03T23:39:07.325Z,103472.72
2023-02-03T23:41:33.819Z,103478.53
2023-02-03T23:44:00.871Z,103483.91
2023-02-03T23:46:27.633Z,103478.63
2023-02-03T23:48:54.179Z,103480.44
2023-02-03T23:51:20.723Z,103492.72
2023-02-03T23:53:47.184Z,103494.41
2023-02-03T23:56:13.820Z,103491.03
2023-02-03T23:58:40.299Z,103488.47
